createdAt,value
2022-10-05T00:00:14.808Z,11.95
2022-10-05T00:01:14.699Z,11.97
2022-10-05T00:02:14.537Z,11.99
2022-10-05T00:03:14.369Z,11.99
2022-10-05T00:04:14.554Z,11.97
2022-10-05T00:05:14.395Z,11.99
2022-10-05T00:06:14.338Z,11.99
2022-10-05T00:07:14.372Z,11.99
2022-10-05T00:08:14.319Z,12.00
2022-10-05T00:09:15.257Z,12.02
2022-10-05T00:10:14.297Z,12.00
2022-10-05T00:11:14.287Z,12.00
2022-10-05T00:12:14.276Z,11.99
2022-10-05T00:13:14.299Z,12.00
2022-10-05T00:14:14.251Z,12.00
2022-10-05T00:15:14.240Z,12.02
2022-10-05T00:16:14.274Z,12.02
2022-10-05T00:17:14.217Z,12.03
2022-10-05T00:18:14.224Z,12.03
2022-10-05T00:19:14.229Z,12.04
2022-10-05T00:20:14.222Z,12.04
2022-10-05T00:21:14.270Z,12.07
2022-10-05T00:22:14.260Z,12.07
2022-10-05T00:23:14.149Z,12.09
2022-10-05T00:24:14.155Z,12.10
2022-10-05T00:25:14.193Z,12.12
2022-10-05T00:26:14.132Z,12.12
2022-10-05T00:27:15.075Z,12.13
2022-10-05T00:28:14.148Z,12.15
2022-10-05T00:29:15.035Z,12.15
2022-10-05T00:30:14.102Z,12.13
2022-10-05T00:31:14.465Z,12.15
2022-10-05T00:32:14.187Z,12.15
2022-10-05T00:33:14.158Z,12.15
2022-10-05T00:34:14.076Z,12.17
2022-10-05T00:35:14.297Z,12.15
2022-10-05T00:36:14.005Z,12.15
2022-10-05T00:37:14.005Z,12.18
2022-10-05T00:38:13.981Z,12.15
2022-10-05T00:39:13.965Z,12.15
2022-10-05T00:40:13.966Z,12.15
2022-10-05T00:41:13.970Z,12.13
2022-10-05T00:42:14.222Z,12.15
2022-10-05T00:43:13.939Z,12.15
2022-10-05T00:44:13.909Z,12.15
2022-10-05T00:45:13.898Z,12.15
2022-10-05T00:46:13.974Z,12.17
2022-10-05T00:47:13.885Z,12.18
2022-10-05T00:48:13.862Z,12.18
2022-10-05T00:49:13.848Z,12.18
2022-10-05T00:50:13.853Z,12.20
2022-10-05T00:51:13.831Z,12.21
2022-10-05T00:52:13.841Z,12.20
2022-10-05T00:53:13.820Z,12.18
2022-10-05T00:54:18.162Z,12.22
2022-10-05T00:55:13.810Z,12.20
2022-10-05T00:56:13.785Z,12.20
2022-10-05T00:57:13.805Z,12.18
2022-10-05T00:58:13.770Z,12.18
2022-10-05T00:59:13.734Z,12.17
2022-10-05T01:00:13.749Z,12.17
2022-10-05T01:01:13.755Z,12.15
2022-10-05T01:02:13.723Z,12.17
2022-10-05T01:03:13.741Z,12.15
2022-10-05T01:04:13.695Z,12.15
2022-10-05T01:05:13.676Z,12.12
2022-10-05T01:06:13.667Z,12.13
2022-10-05T01:07:13.649Z,12.10
2022-10-05T01:08:13.659Z,12.10
2022-10-05T01:09:13.648Z,12.10
2022-10-05T01:10:13.626Z,12.09
2022-10-05T01:11:13.634Z,12.09
2022-10-05T01:12:13.596Z,12.07
2022-10-05T01:13:13.576Z,12.07
2022-10-05T01:14:13.576Z,12.07
2022-10-05T01:15:13.612Z,12.07
2022-10-05T01:16:13.616Z,12.09
2022-10-05T01:17:13.540Z,12.09
2022-10-05T01:18:13.534Z,12.09
2022-10-05T01:19:13.551Z,12.09
2022-10-05T01:20:13.548Z,12.10
2022-10-05T01:21:13.502Z,12.09
2022-10-05T01:22:13.487Z,12.10
2022-10-05T01:23:13.467Z,12.10
2022-10-05T01:24:13.467Z,12.10
2022-10-05T01:25:13.464Z,12.15
2022-10-05T01:26:13.491Z,12.18
2022-10-05T01:27:13.431Z,12.18
2022-10-05T01:28:13.458Z,12.18
2022-10-05T01:29:13.412Z,12.20
2022-10-05T01:30:13.402Z,12.20
2022-10-05T01:31:13.479Z,12.20
2022-10-05T01:32:13.413Z,12.21
2022-10-05T01:33:13.385Z,12.24
2022-10-05T01:34:13.352Z,12.24
2022-10-05T01:35:13.373Z,12.25
2022-10-05T01:36:13.353Z,12.25
2022-10-05T01:37:13.311Z,12.28
2022-10-05T01:38:13.329Z,12.27
2022-10-05T01:39:13.283Z,12.28
2022-10-05T01:40:13.293Z,12.29
2022-10-05T01:41:13.282Z,12.29
2022-10-05T01:42:14.239Z,12.31
2022-10-05T01:43:13.244Z,12.32
2022-10-05T01:44:13.290Z,12.31
2022-10-05T01:45:13.234Z,12.31
2022-10-05T01:46:13.265Z,12.35
2022-10-05T01:47:13.220Z,12.36
2022-10-05T01:48:13.186Z,12.36
2022-10-05T01:49:13.192Z,12.36
2022-10-05T01:50:13.200Z,12.37
2022-10-05T01:51:13.154Z,12.37
2022-10-05T01:52:13.145Z,12.37
2022-10-05T01:53:13.139Z,12.36
2022-10-05T01:54:13.136Z,12.39
2022-10-05T01:55:13.128Z,12.40
2022-10-05T01:56:13.143Z,12.43
2022-10-05T01:57:13.086Z,12.43
2022-10-05T01:58:13.086Z,12.46
2022-10-05T01:59:13.098Z,12.45
2022-10-05T02:00:13.059Z,12.47
2022-10-05T02:01:13.134Z,12.47
2022-10-05T02:02:13.119Z,12.49
2022-10-05T02:03:13.033Z,12.49
2022-10-05T02:04:24.425Z,12.50
2022-10-05T02:05:14.040Z,12.53
2022-10-05T02:06:12.991Z,12.54
2022-10-05T02:07:12.979Z,12.53
2022-10-05T02:08:12.982Z,12.53
2022-10-05T02:09:12.972Z,12.53
2022-10-05T02:10:12.941Z,12.54
2022-10-05T02:11:12.986Z,12.53
2022-10-05T02:12:12.939Z,12.53
2022-10-05T02:13:12.911Z,12.50
2022-10-05T02:14:12.895Z,12.50
2022-10-05T02:15:12.942Z,12.50
2022-10-05T02:16:12.975Z,12.50
2022-10-05T02:17:12.872Z,12.50
2022-10-05T02:18:12.872Z,12.53
2022-10-05T02:19:12.843Z,12.53
2022-10-05T02:20:12.834Z,12.54
2022-10-05T02:21:12.879Z,12.53
2022-10-05T02:22:12.809Z,12.54
2022-10-05T02:23:12.802Z,12.54
2022-10-05T02:24:12.788Z,12.57
2022-10-05T02:25:12.776Z,12.58
2022-10-05T02:26:12.766Z,12.57
2022-10-05T02:27:12.765Z,12.55
2022-10-05T02:28:12.850Z,12.54
2022-10-05T02:29:12.735Z,12.55
2022-10-05T02:30:16.362Z,12.57
2022-10-05T02:31:12.746Z,12.60
2022-10-05T02:32:12.721Z,12.58
2022-10-05T02:33:12.686Z,12.60
2022-10-05T02:34:12.670Z,12.60
2022-10-05T02:35:12.663Z,12.62
2022-10-05T02:36:12.676Z,12.62
2022-10-05T02:37:12.658Z,12.64
2022-10-05T02:38:12.637Z,12.65
2022-10-05T02:39:12.823Z,12.65
2022-10-05T02:40:12.614Z,12.67
2022-10-05T02:41:12.589Z,12.67
2022-10-05T02:42:12.584Z,12.68
2022-10-05T02:43:12.594Z,12.70
2022-10-05T02:44:12.557Z,12.70
2022-10-05T02:45:12.547Z,12.68
2022-10-05T02:46:12.592Z,12.70
2022-10-05T02:47:12.520Z,12.70
2022-10-05T02:48:12.532Z,12.68
2022-10-05T02:49:12.512Z,12.68
2022-10-05T02:50:12.488Z,12.68
2022-10-05T02:51:12.481Z,12.67
2022-10-05T02:52:12.487Z,12.64
2022-10-05T02:53:12.453Z,12.67
2022-10-05T02:54:12.467Z,12.67
2022-10-05T02:55:12.440Z,12.67
2022-10-05T02:56:12.422Z,12.67
2022-10-05T02:57:12.419Z,12.68
2022-10-05T02:58:12.393Z,12.67
2022-10-05T02:59:12.412Z,12.67
2022-10-05T03:00:12.397Z,12.67
2022-10-05T03:01:12.456Z,12.68
2022-10-05T03:02:12.456Z,12.68
2022-10-05T03:03:12.350Z,12.67
2022-10-05T03:04:12.328Z,12.68
2022-10-05T03:05:12.334Z,12.67
2022-10-05T03:06:12.304Z,12.68
2022-10-05T03:07:12.318Z,12.67
2022-10-05T03:08:12.320Z,12.70
2022-10-05T03:09:12.273Z,12.70
2022-10-05T03:10:12.257Z,12.70
2022-10-05T03:11:12.267Z,12.68
2022-10-05T03:12:12.241Z,12.68
2022-10-05T03:13:12.227Z,12.70
2022-10-05T03:14:12.228Z,12.70
2022-10-05T03:15:12.207Z,12.72
2022-10-05T03:16:12.351Z,12.70
2022-10-05T03:17:12.187Z,12.73
2022-10-05T03:18:12.177Z,12.76
2022-10-05T03:19:12.187Z,12.76
2022-10-05T03:20:12.150Z,12.78
2022-10-05T03:21:12.152Z,12.79
2022-10-05T03:22:12.122Z,12.78
2022-10-05T03:23:12.140Z,12.80
2022-10-05T03:24:12.110Z,12.79
2022-10-05T03:25:12.089Z,12.82
2022-10-05T03:26:12.083Z,12.82
2022-10-05T03:27:12.074Z,12.83
2022-10-05T03:28:12.140Z,12.83
2022-10-05T03:29:12.050Z,12.86
2022-10-05T03:30:12.040Z,12.86
2022-10-05T03:31:12.122Z,12.87
2022-10-05T03:32:12.010Z,12.90
2022-10-05T03:33:12.003Z,12.87
2022-10-05T03:34:12.029Z,12.91
2022-10-05T03:35:11.994Z,12.91
2022-10-05T03:36:11.984Z,12.93
2022-10-05T03:37:11.966Z,12.93
2022-10-05T03:38:11.943Z,12.93
2022-10-05T03:39:11.982Z,12.95
2022-10-05T03:40:11.924Z,12.95
2022-10-05T03:41:11.912Z,12.97
2022-10-05T03:42:11.932Z,12.97
2022-10-05T03:43:11.915Z,12.97
2022-10-05T03:44:11.907Z,12.95
2022-10-05T03:45:11.876Z,12.97
2022-10-05T03:46:11.916Z,12.98
2022-10-05T03:47:11.845Z,12.98
2022-10-05T03:48:11.845Z,12.98
2022-10-05T03:49:11.849Z,13.00
2022-10-05T03:50:11.836Z,13.00
2022-10-05T03:51:11.827Z,13.01
2022-10-05T03:52:11.788Z,13.00
2022-10-05T03:53:11.779Z,13.01
2022-10-05T03:54:11.775Z,13.00
2022-10-05T03:55:11.761Z,13.01
2022-10-05T03:56:11.767Z,13.01
2022-10-05T03:57:11.748Z,13.04
2022-10-05T03:58:11.720Z,13.03
2022-10-05T03:59:11.711Z,13.03
2022-10-05T04:00:12.660Z,13.03
2022-10-05T04:01:11.731Z,13.04
2022-10-05T04:02:11.730Z,13.05
2022-10-05T04:03:11.812Z,13.05
2022-10-05T04:04:11.691Z,13.05
2022-10-05T04:05:11.650Z,13.05
2022-10-05T04:06:11.624Z,13.05
2022-10-05T04:07:11.619Z,13.05
2022-10-05T04:08:11.602Z,13.04
2022-10-05T04:09:11.592Z,13.05
2022-10-05T04:10:11.623Z,13.05
2022-10-05T04:11:11.581Z,13.05
2022-10-05T04:12:11.575Z,13.05
2022-10-05T04:13:11.555Z,13.05
2022-10-05T04:14:11.554Z,13.08
2022-10-05T04:15:15.243Z,13.09
2022-10-05T04:16:12.601Z,13.08
2022-10-05T04:17:11.535Z,13.09
2022-10-05T04:18:11.498Z,13.11
2022-10-05T04:19:11.519Z,13.09
2022-10-05T04:20:11.467Z,13.09
2022-10-05T04:21:11.455Z,13.12
2022-10-05T04:22:12.432Z,13.11
2022-10-05T04:23:11.443Z,13.11
2022-10-05T04:24:11.521Z,13.11
2022-10-05T04:25:11.416Z,13.11
2022-10-05T04:26:11.398Z,13.12
2022-10-05T04:27:11.435Z,13.12
2022-10-05T04:28:11.429Z,13.12
2022-10-05T04:29:11.387Z,13.13
2022-10-05T04:30:12.050Z,13.13
2022-10-05T04:31:11.430Z,13.11
2022-10-05T04:32:11.338Z,13.12
2022-10-05T04:33:11.338Z,13.09
2022-10-05T04:34:11.312Z,13.11
2022-10-05T04:35:11.304Z,13.11
2022-10-05T04:36:11.321Z,13.11
2022-10-05T04:37:11.297Z,13.11
2022-10-05T04:38:11.299Z,13.11
2022-10-05T04:39:11.263Z,13.09
2022-10-05T04:40:11.247Z,13.09
2022-10-05T04:41:11.237Z,13.08
2022-10-05T04:42:11.243Z,13.05
2022-10-05T04:43:11.221Z,13.08
2022-10-05T04:44:11.200Z,13.05
2022-10-05T04:45:11.251Z,13.08
2022-10-05T04:46:11.246Z,13.08
2022-10-05T04:47:11.269Z,13.09
2022-10-05T04:48:11.194Z,13.09
2022-10-05T04:49:11.176Z,13.11
2022-10-05T04:50:11.134Z,13.11
2022-10-05T04:51:11.123Z,13.11
2022-10-05T04:52:11.113Z,13.11
2022-10-05T04:53:11.119Z,13.11
2022-10-05T04:54:11.161Z,13.11
2022-10-05T04:55:11.076Z,13.09
2022-10-05T04:56:11.065Z,13.09
2022-10-05T04:57:11.072Z,13.11
2022-10-05T04:58:11.995Z,13.11
2022-10-05T04:59:11.039Z,13.12
2022-10-05T05:00:11.036Z,13.12
2022-10-05T05:01:11.110Z,13.15
2022-10-05T05:02:11.044Z,13.15
2022-10-05T05:03:11.009Z,13.15
2022-10-05T05:04:11.042Z,13.15
2022-10-05T05:05:10.988Z,13.15
2022-10-05T05:06:17.318Z,13.16
2022-10-05T05:07:11.936Z,13.15
2022-10-05T05:08:10.936Z,13.16
2022-10-05T05:09:10.995Z,13.16
2022-10-05T05:10:10.919Z,13.16
2022-10-05T05:11:15.821Z,13.16
2022-10-05T05:12:11.910Z,13.16
2022-10-05T05:13:10.879Z,13.15
2022-10-05T05:14:10.858Z,13.13
2022-10-05T05:15:10.986Z,13.13
2022-10-05T05:16:11.745Z,13.13
2022-10-05T05:17:13.177Z,13.15
2022-10-05T05:18:10.818Z,13.13
2022-10-05T05:19:10.819Z,13.15
2022-10-05T05:20:10.799Z,13.15
2022-10-05T05:21:10.811Z,13.12
2022-10-05T05:22:10.778Z,13.13
2022-10-05T05:23:11.720Z,13.13
2022-10-05T05:24:10.785Z,13.12
2022-10-05T05:25:10.751Z,13.12
2022-10-05T05:26:10.725Z,13.13
2022-10-05T05:27:10.721Z,13.13
2022-10-05T05:28:10.806Z,13.15
2022-10-05T05:29:10.703Z,13.13
2022-10-05T05:30:10.692Z,13.13
2022-10-05T05:31:10.703Z,13.13
2022-10-05T05:32:10.661Z,13.12
2022-10-05T05:33:10.676Z,13.13
2022-10-05T05:34:10.634Z,13.13
2022-10-05T05:35:10.629Z,13.12
2022-10-05T05:36:10.668Z,13.12
2022-10-05T05:37:10.605Z,13.12
2022-10-05T05:38:10.593Z,13.12
2022-10-05T05:39:11.552Z,13.12
2022-10-05T05:40:10.575Z,13.15
2022-10-05T05:41:10.564Z,13.16
2022-10-05T05:42:10.946Z,13.18
2022-10-05T05:43:10.538Z,13.19
2022-10-05T05:44:10.578Z,13.19
2022-10-05T05:45:10.510Z,13.19
2022-10-05T05:46:10.516Z,13.19
2022-10-05T05:47:10.884Z,13.19
2022-10-05T05:48:10.509Z,13.20
2022-10-05T05:49:10.494Z,13.20
2022-10-05T05:50:10.475Z,13.22
2022-10-05T05:51:10.452Z,13.23
2022-10-05T05:52:10.447Z,13.23
2022-10-05T05:53:10.457Z,13.23
2022-10-05T05:54:10.412Z,13.27
2022-10-05T05:55:10.420Z,13.27
2022-10-05T05:56:10.391Z,13.27
2022-10-05T05:57:10.392Z,13.25
2022-10-05T05:58:10.362Z,13.28
2022-10-05T05:59:10.383Z,13.27
2022-10-05T06:00:10.342Z,13.27
2022-10-05T06:01:25.028Z,13.28
2022-10-05T06:02:11.415Z,13.27
2022-10-05T06:03:10.463Z,13.30
2022-10-05T06:04:10.313Z,13.33
2022-10-05T06:05:10.292Z,13.33
2022-10-05T06:06:10.295Z,13.37
2022-10-05T06:07:10.270Z,13.39
2022-10-05T06:08:10.283Z,13.41
2022-10-05T06:09:11.204Z,13.42
2022-10-05T06:10:10.239Z,13.42
2022-10-05T06:11:10.224Z,13.44
2022-10-05T06:12:10.222Z,13.46
2022-10-05T06:13:10.226Z,13.47
2022-10-05T06:14:10.205Z,13.49
2022-10-05T06:15:10.183Z,13.49
2022-10-05T06:16:10.219Z,13.50
2022-10-05T06:17:10.156Z,13.49
2022-10-05T06:18:10.150Z,13.50
2022-10-05T06:19:10.157Z,13.52
2022-10-05T06:20:10.468Z,13.52
2022-10-05T06:21:10.137Z,13.53
2022-10-05T06:22:10.108Z,13.56
2022-10-05T06:23:10.120Z,13.57
2022-10-05T06:24:10.087Z,13.56
2022-10-05T06:25:10.070Z,13.59
2022-10-05T06:26:11.016Z,13.60
2022-10-05T06:27:10.057Z,13.62
2022-10-05T06:28:10.117Z,13.65
2022-10-05T06:29:10.039Z,13.67
2022-10-05T06:30:10.010Z,13.68
2022-10-05T06:31:10.053Z,13.71
2022-10-05T06:32:10.128Z,13.72
2022-10-05T06:33:09.998Z,13.72
2022-10-05T06:34:11.443Z,13.72
2022-10-05T06:35:09.963Z,13.75
2022-10-05T06:36:10.181Z,13.77
2022-10-05T06:37:09.945Z,13.75
2022-10-05T06:38:09.931Z,13.77
2022-10-05T06:39:09.922Z,13.78
2022-10-05T06:40:09.905Z,13.78
2022-10-05T06:41:09.952Z,13.78
2022-10-05T06:42:09.947Z,13.77
2022-10-05T06:43:09.874Z,13.79
2022-10-05T06:44:09.873Z,13.81
2022-10-05T06:45:09.845Z,13.83
2022-10-05T06:46:09.900Z,13.85
2022-10-05T06:47:09.850Z,13.86
2022-10-05T06:48:09.815Z,13.87
2022-10-05T06:49:09.801Z,13.86
2022-10-05T06:50:10.203Z,13.87
2022-10-05T06:51:09.797Z,13.87
2022-10-05T06:52:10.725Z,13.87
2022-10-05T06:53:09.765Z,13.89
2022-10-05T06:54:09.775Z,13.90
2022-10-05T06:55:14.054Z,13.90
2022-10-05T06:56:09.767Z,13.92
2022-10-05T06:57:09.729Z,13.90
2022-10-05T06:58:09.704Z,13.93
2022-10-05T06:59:09.691Z,13.93
2022-10-05T07:00:09.743Z,13.96
2022-10-05T07:01:10.672Z,13.96
2022-10-05T07:02:09.767Z,13.97
2022-10-05T07:03:10.608Z,13.99
2022-10-05T07:04:09.641Z,14.00
2022-10-05T07:05:09.624Z,14.03
2022-10-05T07:06:09.649Z,14.04
2022-10-05T07:07:09.615Z,14.05
2022-10-05T07:08:11.543Z,14.05
2022-10-05T07:09:09.585Z,14.07
2022-10-05T07:10:09.606Z,14.08
2022-10-05T07:11:09.563Z,14.08
2022-10-05T07:12:09.580Z,14.10
2022-10-05T07:13:09.526Z,14.08
2022-10-05T07:14:09.536Z,14.08
2022-10-05T07:15:09.514Z,14.10
2022-10-05T07:16:09.520Z,14.11
2022-10-05T07:17:09.486Z,14.11
2022-10-05T07:18:10.456Z,14.11
2022-10-05T07:19:10.426Z,14.11
2022-10-05T07:20:09.686Z,14.14
2022-10-05T07:21:10.434Z,14.15
2022-10-05T07:22:10.885Z,14.15
2022-10-05T07:23:10.875Z,14.15
2022-10-05T07:24:11.108Z,14.17
2022-10-05T07:25:09.438Z,14.15
2022-10-05T07:26:10.846Z,14.17
2022-10-05T07:27:10.165Z,14.18
2022-10-05T07:28:09.417Z,14.18
2022-10-05T07:29:09.408Z,14.18
2022-10-05T07:30:09.381Z,14.18
2022-10-05T07:31:09.383Z,14.22
2022-10-05T07:32:09.352Z,14.20
2022-10-05T07:33:10.249Z,14.20
2022-10-05T07:34:09.344Z,14.22
2022-10-05T07:35:10.735Z,14.23
2022-10-05T07:36:09.392Z,14.25
2022-10-05T07:37:09.268Z,14.26
2022-10-05T07:38:09.346Z,14.26
2022-10-05T07:39:09.240Z,14.29
2022-10-05T07:40:09.360Z,14.29
2022-10-05T07:41:09.412Z,14.30
2022-10-05T07:42:09.213Z,14.30
2022-10-05T07:43:09.223Z,14.35
2022-10-05T07:44:12.841Z,14.36
2022-10-05T07:45:09.174Z,14.40
2022-10-05T07:46:09.199Z,14.40
2022-10-05T07:47:09.142Z,14.40
2022-10-05T07:48:09.507Z,14.40
2022-10-05T07:49:09.698Z,14.41
2022-10-05T07:50:09.153Z,14.40
2022-10-05T07:51:09.117Z,14.41
2022-10-05T07:52:09.114Z,14.41
2022-10-05T07:53:09.104Z,14.43
2022-10-05T07:54:10.756Z,14.41
2022-10-05T07:55:09.298Z,14.45
2022-10-05T07:56:09.057Z,14.47
2022-10-05T07:57:10.007Z,14.47
2022-10-05T07:58:09.844Z,14.47
2022-10-05T07:59:09.018Z,14.48
2022-10-05T08:00:09.113Z,14.48
2022-10-05T08:01:09.494Z,14.50
2022-10-05T08:02:09.110Z,14.50
2022-10-05T08:03:10.128Z,14.51
2022-10-05T08:04:09.116Z,14.53
2022-10-05T08:05:09.257Z,14.53
2022-10-05T08:06:09.024Z,14.54
2022-10-05T08:07:10.428Z,14.55
2022-10-05T08:08:10.986Z,14.55
2022-10-05T08:09:08.954Z,14.59
2022-10-05T08:10:08.890Z,14.60
2022-10-05T08:11:08.966Z,14.60
2022-10-05T08:12:08.955Z,14.63
2022-10-05T08:13:08.902Z,14.63
2022-10-05T08:14:10.326Z,14.65
2022-10-05T08:15:09.600Z,14.66
2022-10-05T08:16:10.349Z,14.68
2022-10-05T08:17:08.808Z,14.70
2022-10-05T08:18:08.799Z,14.70
2022-10-05T08:19:08.790Z,14.72
2022-10-05T08:20:08.808Z,14.73
2022-10-05T08:21:09.041Z,14.78
2022-10-05T08:22:08.759Z,14.78
2022-10-05T08:23:08.861Z,14.79
2022-10-05T08:24:08.749Z,14.82
2022-10-05T08:25:08.723Z,14.84
2022-10-05T08:26:09.538Z,14.85
2022-10-05T08:27:08.716Z,14.86
2022-10-05T08:28:08.714Z,14.88
2022-10-05T08:29:13.488Z,14.91
2022-10-05T08:30:10.394Z,14.92
2022-10-05T08:31:08.700Z,14.94
2022-10-05T08:32:08.660Z,14.96
2022-10-05T08:33:09.458Z,14.97
2022-10-05T08:34:09.043Z,15.00
2022-10-05T08:35:09.110Z,15.02
2022-10-05T08:36:09.077Z,15.03
2022-10-05T08:37:10.061Z,15.04
2022-10-05T08:38:08.600Z,15.04
2022-10-05T08:39:08.770Z,15.07
2022-10-05T08:40:08.559Z,15.10
2022-10-05T08:41:08.543Z,15.11
2022-10-05T08:42:08.560Z,15.15
2022-10-05T08:43:09.965Z,15.15
2022-10-05T08:44:09.304Z,15.17
2022-10-05T08:45:08.535Z,15.19
2022-10-05T08:46:09.996Z,15.21
2022-10-05T08:47:08.527Z,15.22
2022-10-05T08:48:08.466Z,15.24
2022-10-05T08:49:12.362Z,15.27
2022-10-05T08:50:08.430Z,15.28
2022-10-05T08:51:08.482Z,15.29
2022-10-05T08:52:08.464Z,15.33
2022-10-05T08:53:08.416Z,15.35
2022-10-05T08:54:08.402Z,15.36
2022-10-05T08:55:08.448Z,15.39
2022-10-05T08:56:08.370Z,15.40
2022-10-05T08:57:08.372Z,15.43
2022-10-05T08:58:08.453Z,15.44
2022-10-05T08:59:08.343Z,15.46
2022-10-05T09:00:08.342Z,15.49
2022-10-05T09:01:08.376Z,15.52
2022-10-05T09:02:08.380Z,15.55
2022-10-05T09:03:08.318Z,15.55
2022-10-05T09:04:08.278Z,15.58
2022-10-05T09:05:09.713Z,15.61
2022-10-05T09:06:08.257Z,15.62
2022-10-05T09:07:08.248Z,15.62
2022-10-05T09:08:08.254Z,15.68
2022-10-05T09:09:08.216Z,15.70
2022-10-05T09:10:08.480Z,15.73
2022-10-05T09:11:08.283Z,15.73
2022-10-05T09:12:09.638Z,15.76
2022-10-05T09:13:09.638Z,15.79
2022-10-05T09:14:08.174Z,15.79
2022-10-05T09:15:24.861Z,15.82
2022-10-05T09:16:09.246Z,15.83
2022-10-05T09:17:08.120Z,15.86
2022-10-05T09:18:09.569Z,15.90
2022-10-05T09:19:08.291Z,15.92
2022-10-05T09:20:08.259Z,15.92
2022-10-05T09:21:08.535Z,15.95
2022-10-05T09:22:09.072Z,15.98
2022-10-05T09:23:08.361Z,16.02
2022-10-05T09:24:09.522Z,16.05
2022-10-05T09:25:08.297Z,16.09
2022-10-05T09:26:08.055Z,16.09
2022-10-05T09:27:08.813Z,16.12
2022-10-05T09:28:08.084Z,16.15
2022-10-05T09:29:08.174Z,16.16
2022-10-05T09:30:07.993Z,16.17
2022-10-05T09:31:08.066Z,16.21
2022-10-05T09:32:10.694Z,16.24
2022-10-05T09:33:08.246Z,16.24
2022-10-05T09:34:09.394Z,16.26
2022-10-05T09:35:08.278Z,16.31
2022-10-05T09:36:08.876Z,16.29
2022-10-05T09:37:07.905Z,16.33
2022-10-05T09:38:08.736Z,16.35
2022-10-05T09:39:08.748Z,16.36
2022-10-05T09:40:07.920Z,16.36
2022-10-05T09:41:07.856Z,16.36
2022-10-05T09:42:07.949Z,16.39
2022-10-05T09:43:07.848Z,16.42
2022-10-05T09:44:07.834Z,16.46
2022-10-05T09:45:07.843Z,16.49
2022-10-05T09:46:07.974Z,16.51
2022-10-05T09:47:08.745Z,16.51
2022-10-05T09:48:07.781Z,16.56
2022-10-05T09:49:07.776Z,16.57
2022-10-05T09:50:07.757Z,16.58
2022-10-05T09:51:07.807Z,16.60
2022-10-05T09:52:08.542Z,16.64
2022-10-05T09:53:07.727Z,16.64
2022-10-05T09:54:07.718Z,16.65
2022-10-05T09:55:07.740Z,16.66
2022-10-05T09:56:07.702Z,16.66
2022-10-05T09:57:07.684Z,16.71
2022-10-05T09:58:07.667Z,16.68
2022-10-05T09:59:07.677Z,16.71
2022-10-05T10:01:15.833Z,16.71
2022-10-05T10:02:08.732Z,16.71
2022-10-05T10:03:07.760Z,16.72
2022-10-05T10:04:07.645Z,16.74
2022-10-05T10:05:07.592Z,16.75
2022-10-05T10:06:07.597Z,16.76
2022-10-05T10:07:07.569Z,16.78
2022-10-05T10:08:07.583Z,16.79
2022-10-05T10:09:07.536Z,16.81
2022-10-05T10:10:07.550Z,16.83
2022-10-05T10:11:07.524Z,16.84
2022-10-05T10:12:07.508Z,16.86
2022-10-05T10:13:08.494Z,16.87
2022-10-05T10:14:07.523Z,16.87
2022-10-05T10:15:07.484Z,16.90
2022-10-05T10:16:07.496Z,16.93
2022-10-05T10:17:08.400Z,16.96
2022-10-05T10:18:07.450Z,16.97
2022-10-05T10:19:07.458Z,17.01
2022-10-05T10:20:07.517Z,17.05
2022-10-05T10:21:08.379Z,17.05
2022-10-05T10:22:07.488Z,17.09
2022-10-05T10:23:07.393Z,17.09
2022-10-05T10:24:07.498Z,17.11
2022-10-05T10:25:07.374Z,17.16
2022-10-05T10:26:07.357Z,17.20
2022-10-05T10:27:07.918Z,17.22
2022-10-05T10:28:07.381Z,17.24
2022-10-05T10:29:08.780Z,17.27
2022-10-05T10:30:07.341Z,17.29
2022-10-05T10:31:07.319Z,17.31
2022-10-05T10:32:07.553Z,17.34
2022-10-05T10:33:07.489Z,17.38
2022-10-05T10:34:07.279Z,17.42
2022-10-05T10:35:07.265Z,17.45
2022-10-05T10:36:07.385Z,17.46
2022-10-05T10:37:07.232Z,17.49
2022-10-05T10:38:07.379Z,17.52
2022-10-05T10:39:07.234Z,17.52
2022-10-05T10:40:07.377Z,17.56
2022-10-05T10:41:08.012Z,17.59
2022-10-05T10:42:07.195Z,17.60
2022-10-05T10:43:07.332Z,17.65
2022-10-05T10:44:07.164Z,17.67
2022-10-05T10:45:07.174Z,17.70
2022-10-05T10:46:07.251Z,17.71
2022-10-05T10:47:07.367Z,17.72
2022-10-05T10:48:07.118Z,17.72
2022-10-05T10:49:07.128Z,17.76
2022-10-05T10:50:07.116Z,17.76
2022-10-05T10:51:07.175Z,17.79
2022-10-05T10:52:07.057Z,17.80
2022-10-05T10:53:07.051Z,17.85
2022-10-05T10:54:07.086Z,17.86
2022-10-05T10:55:07.041Z,17.86
2022-10-05T10:56:07.011Z,17.89
2022-10-05T10:57:07.021Z,17.90
2022-10-05T10:58:07.020Z,17.95
2022-10-05T10:59:07.023Z,17.98
2022-10-05T11:00:07.061Z,18.01
2022-10-05T11:01:06.969Z,18.03
2022-10-05T11:02:07.023Z,18.04
2022-10-05T11:03:06.975Z,18.07
2022-10-05T11:04:07.072Z,18.08
2022-10-05T11:05:06.919Z,18.11
2022-10-05T11:06:06.934Z,18.13
2022-10-05T11:07:06.900Z,18.18
2022-10-05T11:08:06.886Z,18.20
2022-10-05T11:09:06.884Z,18.23
2022-10-05T11:10:06.861Z,18.26
2022-10-05T11:11:06.898Z,18.31
2022-10-05T11:12:06.843Z,18.35
2022-10-05T11:13:06.994Z,18.38
2022-10-05T11:14:08.268Z,18.41
2022-10-05T11:15:07.788Z,18.47
2022-10-05T11:17:06.828Z,18.53
2022-10-05T11:18:06.768Z,18.58
2022-10-05T11:19:06.755Z,18.60
2022-10-05T11:20:06.821Z,18.65
2022-10-05T11:21:06.889Z,18.70
2022-10-05T11:22:06.719Z,18.68
2022-10-05T11:23:06.748Z,18.71
2022-10-05T11:24:06.697Z,18.73
2022-10-05T11:25:06.688Z,18.75
2022-10-05T11:26:06.693Z,18.78
2022-10-05T11:27:06.679Z,18.83
2022-10-05T11:28:06.677Z,18.89
2022-10-05T11:29:06.681Z,18.93
2022-10-05T11:30:06.723Z,18.99
2022-10-05T11:31:06.671Z,19.04
2022-10-05T11:32:06.640Z,19.09
2022-10-05T11:33:06.619Z,19.15
2022-10-05T11:34:06.634Z,19.21
2022-10-05T11:35:06.603Z,19.24
2022-10-05T11:36:06.562Z,19.30
2022-10-05T11:37:06.564Z,19.34
2022-10-05T11:38:06.541Z,19.39
2022-10-05T11:39:06.530Z,19.40
2022-10-05T11:40:06.542Z,19.45
2022-10-05T11:41:06.510Z,19.48
2022-10-05T11:42:06.495Z,19.48
2022-10-05T11:43:06.573Z,19.48
2022-10-05T11:44:07.203Z,19.47
2022-10-05T11:45:06.584Z,19.48
2022-10-05T11:46:07.528Z,19.47
2022-10-05T11:47:06.451Z,19.47
2022-10-05T11:48:06.541Z,19.47
2022-10-05T11:49:06.450Z,19.45
2022-10-05T11:50:06.453Z,19.45
2022-10-05T11:51:06.413Z,19.48
2022-10-05T11:52:06.381Z,19.49
2022-10-05T11:53:06.416Z,19.52
2022-10-05T11:54:06.366Z,19.56
2022-10-05T11:55:11.105Z,19.59
2022-10-05T11:56:07.346Z,19.63
2022-10-05T11:57:06.451Z,19.69
2022-10-05T11:58:06.349Z,19.71
2022-10-05T11:59:06.404Z,19.79
2022-10-05T12:00:06.414Z,19.89
2022-10-05T12:01:06.307Z,20.00
2022-10-05T12:02:06.307Z,20.07
2022-10-05T12:03:06.388Z,20.13
2022-10-05T12:04:06.340Z,20.14
2022-10-05T12:05:06.241Z,20.19
2022-10-05T12:06:06.563Z,20.22
2022-10-05T12:07:06.223Z,20.26
2022-10-05T12:08:06.235Z,20.29
2022-10-05T12:09:06.604Z,20.29
2022-10-05T12:10:06.485Z,20.28
2022-10-05T12:11:06.553Z,20.28
2022-10-05T12:12:06.212Z,20.29
2022-10-05T12:13:06.180Z,20.37
2022-10-05T12:14:06.178Z,20.50
2022-10-05T12:15:06.596Z,20.67
2022-10-05T12:16:06.733Z,20.85
2022-10-05T12:17:06.589Z,21.07
2022-10-05T12:18:06.285Z,21.32
2022-10-05T12:19:06.598Z,21.57
2022-10-05T12:20:06.239Z,21.80
2022-10-05T12:21:06.057Z,22.02
2022-10-05T12:22:06.836Z,22.23
2022-10-05T12:23:07.013Z,22.39
2022-10-05T12:24:06.420Z,22.50
2022-10-05T12:25:06.801Z,22.63
2022-10-05T12:26:06.044Z,22.68
2022-10-05T12:27:06.291Z,22.80
2022-10-05T12:28:06.082Z,22.90
2022-10-05T12:29:06.673Z,23.00
2022-10-05T12:30:06.134Z,23.06
2022-10-05T12:31:06.039Z,23.09
2022-10-05T12:32:06.990Z,23.06
2022-10-05T12:33:05.948Z,22.93
2022-10-05T12:34:05.981Z,22.78
2022-10-05T12:35:05.912Z,22.62
2022-10-05T12:36:05.893Z,22.50
2022-10-05T12:37:06.132Z,22.43
2022-10-05T12:38:05.937Z,22.32
2022-10-05T12:39:05.880Z,22.13
2022-10-05T12:40:05.876Z,21.96
2022-10-05T12:41:05.848Z,21.82
2022-10-05T12:42:05.895Z,21.69
2022-10-05T12:43:05.823Z,21.58
2022-10-05T12:44:06.074Z,21.48
2022-10-05T12:45:05.803Z,21.50
2022-10-05T12:46:05.834Z,21.52
2022-10-05T12:47:05.799Z,21.54
2022-10-05T12:48:05.762Z,21.50
2022-10-05T12:49:05.763Z,21.42
2022-10-05T12:50:05.765Z,21.33
2022-10-05T12:51:05.925Z,21.25
2022-10-05T12:52:05.746Z,21.20
2022-10-05T12:53:05.748Z,21.20
2022-10-05T12:54:05.759Z,21.18